createdAt,value
2018-12-02T00:00:34.205Z,6.82
2018-12-02T00:01:34.101Z,6.82
2018-12-02T00:02:34.002Z,6.72
2018-12-02T00:03:33.906Z,6.82
2018-12-02T00:04:33.814Z,6.91
2018-12-02T00:05:33.694Z,6.91
2018-12-02T00:06:33.597Z,7.01
2018-12-02T00:07:33.491Z,6.44
2018-12-02T00:08:33.390Z,5.87
2018-12-02T00:09:33.291Z,5.58
2018-12-02T00:10:33.209Z,6.06
2018-12-02T00:11:33.085Z,5.87
2018-12-02T00:12:32.982Z,5.21
2018-12-02T00:13:32.883Z,4.92
2018-12-02T00:14:32.782Z,4.26
2018-12-02T00:15:32.693Z,4.45
2018-12-02T00:16:32.576Z,3.97
2018-12-02T00:17:32.473Z,3.41
2018-12-02T00:18:32.374Z,3.59
2018-12-02T00:19:32.271Z,3.22
2018-12-02T00:20:32.184Z,3.50
2018-12-02T00:21:32.076Z,2.55
2018-12-02T00:22:31.966Z,2.46
2018-12-02T00:23:31.866Z,2.36
2018-12-02T00:24:31.763Z,2.27
2018-12-02T00:25:31.676Z,2.36
2018-12-02T00:26:31.558Z,1.98
2018-12-02T00:27:31.461Z,1.89
2018-12-02T00:28:31.355Z,2.17
2018-12-02T00:29:31.653Z,1.51
2018-12-02T00:30:31.170Z,1.79
2018-12-02T00:31:31.052Z,1.98
2018-12-02T00:32:30.952Z,1.42
2018-12-02T00:33:30.846Z,1.14
2018-12-02T00:34:30.878Z,1.32
2018-12-02T00:35:30.662Z,0.95
2018-12-02T00:36:30.542Z,0.57
2018-12-02T00:37:30.440Z,0.57
2018-12-02T00:38:30.340Z,0.57
2018-12-02T00:39:30.243Z,0.00
2018-12-02T00:40:30.154Z,0.19
2018-12-02T00:41:30.038Z,0.19
2018-12-02T00:42:29.935Z,0.00
2018-12-02T00:43:29.833Z,0.00
2018-12-02T00:44:29.730Z,0.00
2018-12-02T00:45:29.646Z,0.00
2018-12-02T00:46:29.527Z,0.00
2018-12-02T00:47:29.425Z,0.00
2018-12-02T00:48:29.326Z,0.00
2018-12-02T00:49:29.223Z,0.00
2018-12-02T00:50:29.148Z,0.00
2018-12-02T00:51:29.020Z,0.00
2018-12-02T00:52:28.922Z,0.00
2018-12-02T00:53:28.817Z,0.00
2018-12-02T00:54:28.717Z,0.00
2018-12-02T00:55:28.631Z,0.00
2018-12-02T00:56:28.511Z,0.00
2018-12-02T00:57:28.411Z,0.00
2018-12-02T00:58:28.307Z,0.00
2018-12-02T00:59:28.207Z,0.00
2018-12-02T01:00:28.123Z,0.00
2018-12-02T01:01:28.003Z,0.00
2018-12-02T01:02:27.903Z,0.00
2018-12-02T01:03:27.803Z,0.00
2018-12-02T01:04:27.699Z,0.00
2018-12-02T01:05:27.613Z,0.00
2018-12-02T01:06:27.500Z,0.00
2018-12-02T01:07:27.396Z,0.00
2018-12-02T01:08:27.294Z,0.00
2018-12-02T01:09:27.193Z,0.00
2018-12-02T01:10:27.106Z,0.00
2018-12-02T01:11:26.990Z,0.00
2018-12-02T01:12:26.886Z,0.00
2018-12-02T01:13:26.784Z,0.00
2018-12-02T01:14:26.688Z,0.00
2018-12-02T01:15:26.598Z,0.00
2018-12-02T01:16:26.483Z,0.00
2018-12-02T01:17:26.379Z,0.00
2018-12-02T01:18:26.276Z,0.00
2018-12-02T01:19:26.175Z,0.00
2018-12-02T01:20:26.088Z,0.00
2018-12-02T01:21:25.972Z,0.00
2018-12-02T01:22:25.868Z,0.00
2018-12-02T01:23:25.771Z,0.00
2018-12-02T01:24:25.672Z,0.00
2018-12-02T01:25:25.581Z,0.00
2018-12-02T01:26:25.465Z,0.00
2018-12-02T01:27:25.364Z,0.00
2018-12-02T01:28:25.264Z,0.00
2018-12-02T01:29:25.160Z,0.00
2018-12-02T01:30:25.075Z,0.00
2018-12-02T01:31:24.957Z,0.00
2018-12-02T01:32:24.857Z,0.00
2018-12-02T01:33:24.756Z,0.00
2018-12-02T01:34:24.652Z,0.00
2018-12-02T01:35:24.571Z,0.00
2018-12-02T01:36:24.449Z,0.00
2018-12-02T01:37:24.366Z,0.00
2018-12-02T01:38:24.256Z,0.00
2018-12-02T01:39:24.147Z,0.00
2018-12-02T01:40:24.061Z,0.00
2018-12-02T01:41:23.941Z,0.00
2018-12-02T01:42:23.842Z,0.00
2018-12-02T01:43:23.737Z,0.00
2018-12-02T01:44:23.743Z,0.00
2018-12-02T01:45:23.558Z,0.00
2018-12-02T01:46:23.436Z,0.00
2018-12-02T01:47:23.333Z,0.00
2018-12-02T01:48:23.233Z,0.00
2018-12-02T01:49:23.129Z,0.00
2018-12-02T01:50:23.048Z,0.00
2018-12-02T01:51:23.032Z,0.00
2018-12-02T01:52:22.840Z,0.00
2018-12-02T01:53:22.727Z,0.00
2018-12-02T01:54:22.626Z,0.00
2018-12-02T01:55:22.527Z,0.00
2018-12-02T01:56:22.438Z,0.00
2018-12-02T01:57:22.320Z,0.00
2018-12-02T01:58:22.322Z,0.00
2018-12-02T01:59:22.117Z,0.00
2018-12-02T02:00:22.018Z,0.00
2018-12-02T02:01:21.931Z,0.00
2018-12-02T02:02:21.815Z,0.00
2018-12-02T02:03:21.716Z,0.00
2018-12-02T02:04:21.608Z,0.00
2018-12-02T02:05:21.623Z,0.00
2018-12-02T02:06:21.425Z,0.00
2018-12-02T02:07:21.309Z,0.00
2018-12-02T02:08:21.204Z,0.00
2018-12-02T02:09:21.103Z,0.00
2018-12-02T02:10:21.006Z,0.00
2018-12-02T02:11:20.920Z,0.00
2018-12-02T02:12:20.898Z,0.00
2018-12-02T02:13:20.698Z,0.00
2018-12-02T02:14:20.596Z,0.00
2018-12-02T02:15:20.502Z,0.00
2018-12-02T02:16:20.423Z,0.00
2018-12-02T02:17:20.291Z,0.00
2018-12-02T02:18:20.193Z,0.00
2018-12-02T02:19:20.189Z,0.00
2018-12-02T02:20:19.987Z,0.00
2018-12-02T02:21:19.902Z,0.00
2018-12-02T02:22:19.788Z,0.00
2018-12-02T02:23:19.686Z,0.00
2018-12-02T02:24:19.581Z,0.00
2018-12-02T02:25:19.482Z,0.00
2018-12-02T02:26:19.508Z,0.00
2018-12-02T02:27:19.282Z,0.00
2018-12-02T02:28:19.178Z,0.00
2018-12-02T02:29:19.078Z,0.00
2018-12-02T02:30:18.976Z,0.00
2018-12-02T02:31:18.891Z,0.00
2018-12-02T02:32:18.769Z,0.00
2018-12-02T02:33:18.776Z,0.00
2018-12-02T02:34:18.568Z,0.00
2018-12-02T02:35:18.466Z,0.00
2018-12-02T02:36:18.382Z,0.00
2018-12-02T02:37:18.263Z,0.00
2018-12-02T02:38:18.162Z,0.00
2018-12-02T02:39:18.062Z,0.00
2018-12-02T02:40:18.084Z,0.00
2018-12-02T02:41:17.879Z,0.00
2018-12-02T02:42:17.755Z,0.09
2018-12-02T02:43:17.654Z,0.09
2018-12-02T02:44:17.557Z,0.19
2018-12-02T02:45:17.451Z,0.19
2018-12-02T02:46:17.367Z,0.00
2018-12-02T02:47:17.355Z,0.19
2018-12-02T02:48:17.149Z,0.00
2018-12-02T02:49:17.047Z,0.00
2018-12-02T02:50:16.945Z,0.00
2018-12-02T02:51:16.860Z,0.00
2018-12-02T02:52:16.741Z,0.00
2018-12-02T02:53:16.639Z,0.00
2018-12-02T02:54:16.546Z,0.00
2018-12-02T02:55:16.444Z,0.00
2018-12-02T02:56:16.350Z,0.00
2018-12-02T02:57:16.234Z,0.00
2018-12-02T02:58:16.132Z,0.00
2018-12-02T02:59:16.031Z,0.00
2018-12-02T03:00:15.930Z,0.00
2018-12-02T03:01:15.854Z,0.00
2018-12-02T03:02:15.731Z,0.00
2018-12-02T03:03:15.628Z,0.00
2018-12-02T03:04:15.526Z,0.00
2018-12-02T03:05:15.423Z,0.00
2018-12-02T03:06:15.343Z,0.00
2018-12-02T03:07:15.322Z,0.00
2018-12-02T03:08:15.120Z,0.00
2018-12-02T03:09:15.015Z,0.00
2018-12-02T03:10:14.921Z,0.00
2018-12-02T03:11:14.904Z,0.00
2018-12-02T03:12:14.713Z,0.00
2018-12-02T03:13:14.610Z,0.00
2018-12-02T03:14:14.509Z,0.00
2018-12-02T03:15:14.407Z,0.00
2018-12-02T03:16:14.321Z,0.00
2018-12-02T03:17:14.202Z,0.00
2018-12-02T03:18:14.102Z,0.00
2018-12-02T03:19:14.003Z,0.00
2018-12-02T03:20:13.899Z,0.00
2018-12-02T03:21:13.814Z,0.00
2018-12-02T03:22:13.692Z,0.00
2018-12-02T03:23:13.600Z,0.09
2018-12-02T03:24:13.491Z,0.00
2018-12-02T03:25:13.391Z,0.09
2018-12-02T03:26:13.303Z,0.09
2018-12-02T03:27:13.187Z,0.09
2018-12-02T03:28:13.087Z,0.19
2018-12-02T03:29:12.985Z,0.19
2018-12-02T03:30:12.889Z,0.00
2018-12-02T03:31:16.041Z,0.28
2018-12-02T03:32:12.686Z,0.00
2018-12-02T03:33:12.585Z,0.00
2018-12-02T03:34:12.488Z,0.28
2018-12-02T03:35:12.375Z,0.00
2018-12-02T03:36:12.291Z,0.28
2018-12-02T03:37:12.172Z,0.38
2018-12-02T03:38:12.071Z,0.19
2018-12-02T03:39:11.971Z,0.28
2018-12-02T03:40:11.894Z,0.19
2018-12-02T03:41:11.767Z,0.00
2018-12-02T03:42:11.679Z,0.57
2018-12-02T03:43:11.566Z,0.66
2018-12-02T03:44:11.466Z,0.66
2018-12-02T03:45:11.438Z,0.85
2018-12-02T03:46:11.261Z,0.76
2018-12-02T03:47:11.173Z,1.04
2018-12-02T03:48:11.073Z,0.95
2018-12-02T03:49:10.955Z,0.76
2018-12-02T03:50:17.169Z,0.85
2018-12-02T03:51:10.752Z,1.04
2018-12-02T03:52:10.665Z,1.14
2018-12-02T03:53:10.546Z,1.23
2018-12-02T03:54:10.445Z,1.32
2018-12-02T03:55:10.346Z,1.42
2018-12-02T03:56:10.245Z,1.32
2018-12-02T03:57:10.158Z,1.70
2018-12-02T03:58:10.040Z,1.89
2018-12-02T03:59:09.939Z,1.79
2018-12-02T04:00:09.838Z,1.70
2018-12-02T04:01:09.737Z,2.17
2018-12-02T04:02:09.650Z,1.79
2018-12-02T04:03:09.533Z,2.17
2018-12-02T04:04:09.431Z,2.27
2018-12-02T04:05:09.328Z,2.74
2018-12-02T04:06:09.228Z,2.46
2018-12-02T04:07:09.142Z,2.55
2018-12-02T04:08:09.031Z,2.74
2018-12-02T04:09:08.923Z,2.55
2018-12-02T04:10:08.830Z,2.55
2018-12-02T04:11:08.724Z,2.55
2018-12-02T04:12:08.633Z,2.74
2018-12-02T04:13:08.518Z,2.84
2018-12-02T04:14:08.415Z,2.93
2018-12-02T04:15:08.314Z,3.03
2018-12-02T04:16:08.222Z,3.22
2018-12-02T04:17:08.128Z,2.84
2018-12-02T04:18:08.023Z,3.41
2018-12-02T04:19:07.912Z,3.03
2018-12-02T04:20:07.811Z,3.69
2018-12-02T04:21:07.703Z,3.59
2018-12-02T04:22:07.618Z,3.69
2018-12-02T04:23:07.500Z,3.59
2018-12-02T04:24:07.503Z,3.78
2018-12-02T04:25:07.303Z,3.97
2018-12-02T04:26:07.195Z,3.78
2018-12-02T04:27:07.112Z,3.97
2018-12-02T04:28:06.992Z,3.97
2018-12-02T04:29:06.891Z,4.45
2018-12-02T04:30:06.792Z,3.97
2018-12-02T04:31:06.792Z,4.16
2018-12-02T04:32:06.605Z,4.35
2018-12-02T04:33:06.489Z,4.54
2018-12-02T04:34:06.384Z,4.54
2018-12-02T04:35:06.281Z,4.54
2018-12-02T04:36:06.179Z,4.45
2018-12-02T04:37:06.096Z,5.02
2018-12-02T04:38:06.079Z,5.30
2018-12-02T04:39:05.876Z,5.49
2018-12-02T04:40:05.774Z,5.40
2018-12-02T04:41:05.674Z,5.68
2018-12-02T04:42:05.590Z,5.49
2018-12-02T04:43:05.470Z,6.15
2018-12-02T04:44:05.368Z,6.25
2018-12-02T04:45:05.381Z,6.44
2018-12-02T04:46:05.166Z,6.34
2018-12-02T04:47:05.079Z,6.91
2018-12-02T04:48:04.967Z,7.01
2018-12-02T04:49:04.860Z,6.91
2018-12-02T04:50:04.759Z,7.01
2018-12-02T04:51:04.659Z,7.67
2018-12-02T04:52:04.675Z,7.48
2018-12-02T04:53:04.454Z,7.48
2018-12-02T04:54:04.355Z,7.76
2018-12-02T04:55:04.251Z,7.95
2018-12-02T04:56:04.148Z,8.14
2018-12-02T04:57:04.065Z,8.42
2018-12-02T04:58:03.950Z,8.14
2018-12-02T04:59:03.956Z,8.42
2018-12-02T05:00:03.747Z,8.61
2018-12-02T05:01:03.641Z,8.90
2018-12-02T05:02:03.555Z,9.09
2018-12-02T05:03:03.460Z,9.47
2018-12-02T05:04:03.336Z,9.75
2018-12-02T05:05:03.235Z,10.03
2018-12-02T05:06:03.235Z,9.94
2018-12-02T05:07:03.048Z,10.03
2018-12-02T05:08:02.930Z,10.32
2018-12-02T05:09:02.830Z,10.70
2018-12-02T05:10:02.728Z,10.79
2018-12-02T05:11:02.627Z,10.89
2018-12-02T05:12:02.539Z,10.60
2018-12-02T05:13:02.538Z,10.60
2018-12-02T05:14:02.321Z,10.70
2018-12-02T05:15:02.222Z,10.89
2018-12-02T05:16:02.116Z,10.70
2018-12-02T05:17:02.036Z,10.70
2018-12-02T05:18:01.915Z,11.17
2018-12-02T05:19:01.812Z,11.36
2018-12-02T05:20:01.830Z,11.36
2018-12-02T05:21:01.608Z,11.46
2018-12-02T05:22:01.526Z,11.65
2018-12-02T05:23:01.407Z,11.08
2018-12-02T05:24:01.303Z,11.08
2018-12-02T05:25:01.211Z,10.79
2018-12-02T05:26:01.097Z,10.89
2018-12-02T05:27:01.109Z,10.79
2018-12-02T05:28:00.919Z,10.70
2018-12-02T05:29:00.799Z,11.46
2018-12-02T05:30:00.693Z,11.17
2018-12-02T05:31:00.592Z,11.55
2018-12-02T05:32:00.494Z,11.46
2018-12-02T05:33:00.404Z,11.46
2018-12-02T05:34:00.285Z,11.27
2018-12-02T05:35:00.185Z,11.36
2018-12-02T05:36:00.082Z,11.08
2018-12-02T05:36:59.983Z,11.27
2018-12-02T05:37:59.894Z,11.08
2018-12-02T05:38:59.779Z,10.98
2018-12-02T05:39:59.674Z,10.79
2018-12-02T05:40:59.573Z,10.89
2018-12-02T05:41:59.473Z,11.17
2018-12-02T05:42:59.387Z,11.17
2018-12-02T05:43:59.267Z,11.17
2018-12-02T05:44:59.172Z,11.46
2018-12-02T05:45:59.064Z,11.36
2018-12-02T05:46:58.965Z,11.65
2018-12-02T05:47:58.881Z,11.74
2018-12-02T05:48:58.760Z,11.83
2018-12-02T05:49:58.673Z,12.12
2018-12-02T05:50:58.558Z,11.46
2018-12-02T05:51:58.453Z,11.46
2018-12-02T05:52:58.369Z,11.46
2018-12-02T05:53:58.253Z,11.83
2018-12-02T05:54:58.149Z,11.83
2018-12-02T05:55:58.046Z,12.02
2018-12-02T05:56:57.944Z,11.93
2018-12-02T05:57:57.859Z,11.83
2018-12-02T05:58:57.751Z,12.21
2018-12-02T05:59:57.640Z,12.31
2018-12-02T06:00:57.539Z,12.31
2018-12-02T06:01:57.440Z,12.31
2018-12-02T06:02:57.357Z,12.21
2018-12-02T06:03:57.232Z,12.12
2018-12-02T06:04:57.132Z,12.40
2018-12-02T06:05:57.030Z,12.02
2018-12-02T06:06:56.927Z,11.93
2018-12-02T06:07:56.842Z,12.02
2018-12-02T06:08:56.725Z,12.12
2018-12-02T06:09:56.623Z,12.02
2018-12-02T06:10:56.835Z,12.31
2018-12-02T06:11:56.422Z,12.21
2018-12-02T06:12:56.334Z,12.21
2018-12-02T06:13:56.218Z,12.12
2018-12-02T06:14:56.114Z,12.12
2018-12-02T06:15:56.011Z,12.12
2018-12-02T06:16:55.912Z,12.21
2018-12-02T06:17:55.827Z,12.02
2018-12-02T06:18:55.708Z,12.21
2018-12-02T06:19:55.605Z,12.40
2018-12-02T06:20:55.505Z,12.31
2018-12-02T06:21:55.402Z,12.59
2018-12-02T06:22:55.318Z,12.21
2018-12-02T06:23:55.198Z,12.50
2018-12-02T06:24:55.097Z,12.21
2018-12-02T06:25:54.994Z,12.40
2018-12-02T06:26:54.906Z,12.31
2018-12-02T06:27:54.805Z,12.40
2018-12-02T06:28:54.688Z,12.50
2018-12-02T06:29:54.588Z,12.40
2018-12-02T06:30:54.485Z,12.50
2018-12-02T06:31:54.382Z,12.12
2018-12-02T06:32:54.297Z,12.50
2018-12-02T06:33:54.179Z,12.50
2018-12-02T06:34:54.078Z,12.50
2018-12-02T06:35:53.975Z,12.78
2018-12-02T06:36:53.873Z,13.35
2018-12-02T06:37:53.790Z,13.26
2018-12-02T06:38:53.675Z,12.88
2018-12-02T06:39:53.568Z,12.97
2018-12-02T06:40:53.465Z,13.16
2018-12-02T06:41:53.366Z,13.16
2018-12-02T06:42:53.279Z,12.97
2018-12-02T06:43:53.161Z,13.07
2018-12-02T06:44:53.062Z,12.59
2018-12-02T06:45:52.958Z,12.97
2018-12-02T06:46:52.861Z,13.07
2018-12-02T06:47:52.772Z,13.16
2018-12-02T06:48:52.651Z,13.07
2018-12-02T06:49:52.550Z,13.16
2018-12-02T06:50:52.447Z,12.97
2018-12-02T06:51:52.345Z,12.97
2018-12-02T06:52:52.261Z,13.16
2018-12-02T06:53:52.142Z,13.26
2018-12-02T06:54:52.043Z,13.26
2018-12-02T06:55:51.941Z,13.07
2018-12-02T06:56:51.846Z,12.97
2018-12-02T06:57:51.753Z,13.16
2018-12-02T06:58:51.634Z,13.45
2018-12-02T06:59:51.533Z,13.45
2018-12-02T07:00:51.430Z,13.35
2018-12-02T07:01:51.786Z,13.73
2018-12-02T07:02:51.242Z,14.01
2018-12-02T07:03:51.123Z,13.92
2018-12-02T07:04:51.026Z,13.83
2018-12-02T07:05:50.921Z,13.73
2018-12-02T07:06:50.820Z,13.64
2018-12-02T07:07:50.732Z,13.73
2018-12-02T07:08:50.619Z,13.82
2018-12-02T07:09:50.513Z,14.11
2018-12-02T07:10:50.412Z,13.73
2018-12-02T07:11:50.317Z,13.82
2018-12-02T07:12:50.211Z,14.01
2018-12-02T07:13:50.130Z,13.54
2018-12-02T07:14:50.005Z,13.92
2018-12-02T07:15:49.902Z,13.73
2018-12-02T07:16:49.801Z,13.73
2018-12-02T07:17:49.700Z,13.73
2018-12-02T07:18:49.614Z,13.35
2018-12-02T07:19:49.493Z,14.01
2018-12-02T07:20:49.392Z,13.82
2018-12-02T07:21:49.290Z,13.82
2018-12-02T07:22:49.207Z,13.82
2018-12-02T07:23:49.102Z,14.01
2018-12-02T07:24:48.987Z,13.82
2018-12-02T07:25:48.986Z,14.01
2018-12-02T07:26:48.780Z,13.92
2018-12-02T07:27:48.686Z,13.92
2018-12-02T07:28:48.597Z,13.64
2018-12-02T07:29:48.474Z,13.92
2018-12-02T07:30:48.374Z,14.20
2018-12-02T07:31:48.271Z,14.20
2018-12-02T07:32:48.173Z,14.48
2018-12-02T07:33:48.084Z,14.01
2018-12-02T07:34:47.968Z,14.48
2018-12-02T07:35:47.862Z,14.48
2018-12-02T07:36:47.761Z,14.67
2018-12-02T07:37:47.659Z,14.48
2018-12-02T07:38:47.575Z,14.86
2018-12-02T07:39:47.558Z,14.77
2018-12-02T07:40:47.354Z,14.78
2018-12-02T07:41:47.266Z,15.15
2018-12-02T07:42:47.152Z,15.05
2018-12-02T07:43:47.064Z,15.25
2018-12-02T07:44:46.944Z,15.53
2018-12-02T07:45:46.845Z,15.44
2018-12-02T07:46:46.846Z,15.63
2018-12-02T07:47:46.640Z,15.81
2018-12-02T07:48:46.560Z,15.81
2018-12-02T07:49:46.440Z,15.44
2018-12-02T07:50:46.336Z,15.44
2018-12-02T07:51:46.236Z,15.44
2018-12-02T07:52:46.130Z,15.53
2018-12-02T07:53:46.149Z,15.34
2018-12-02T07:54:45.928Z,15.44
2018-12-02T07:55:45.825Z,15.53
2018-12-02T07:56:45.723Z,15.44
2018-12-02T07:57:45.623Z,15.72
2018-12-02T07:58:45.538Z,15.44
2018-12-02T07:59:45.421Z,15.34
2018-12-02T08:00:45.429Z,15.16
2018-12-02T08:01:45.216Z,15.34
2018-12-02T08:02:45.113Z,15.63
2018-12-02T08:03:45.026Z,15.53
2018-12-02T08:04:44.908Z,15.44
2018-12-02T08:05:44.806Z,15.34
2018-12-02T08:06:44.707Z,15.53
2018-12-02T08:07:44.713Z,15.15
2018-12-02T08:08:44.520Z,15.25
2018-12-02T08:09:44.399Z,14.87
2018-12-02T08:10:44.298Z,14.59
2018-12-02T08:11:44.199Z,14.96
2018-12-02T08:12:44.096Z,14.86
2018-12-02T08:13:44.012Z,15.15
2018-12-02T08:14:44.001Z,15.06
2018-12-02T08:15:43.792Z,15.72
2018-12-02T08:16:43.686Z,15.16
2018-12-02T08:17:43.587Z,14.87
2018-12-02T08:18:43.502Z,14.97
2018-12-02T08:19:43.381Z,15.25
2018-12-02T08:20:43.279Z,15.25
2018-12-02T08:21:43.284Z,15.82
2018-12-02T08:22:43.078Z,15.63
2018-12-02T08:23:42.992Z,15.63
2018-12-02T08:24:42.875Z,15.16
2018-12-02T08:25:42.772Z,14.97
2018-12-02T08:26:42.671Z,14.69
2018-12-02T08:27:42.566Z,14.97
2018-12-02T08:28:42.571Z,14.59
2018-12-02T08:29:42.364Z,14.78
2018-12-02T08:30:42.264Z,14.50
2018-12-02T08:31:42.162Z,14.78
2018-12-02T08:32:42.056Z,14.69
2018-12-02T08:33:41.973Z,14.78
2018-12-02T08:34:41.855Z,14.59
2018-12-02T08:35:41.860Z,14.02
2018-12-02T08:36:41.651Z,14.50
2018-12-02T08:37:41.551Z,14.31
2018-12-02T08:38:41.466Z,14.59
2018-12-02T08:39:41.345Z,13.83
2018-12-02T08:40:41.243Z,14.02
2018-12-02T08:41:41.141Z,13.92
2018-12-02T08:42:41.151Z,13.92
2018-12-02T08:43:41.228Z,14.02
2018-12-02T08:44:40.838Z,13.83
2018-12-02T08:45:40.735Z,13.83
2018-12-02T08:46:40.632Z,13.92
2018-12-02T08:47:40.532Z,13.73
2018-12-02T08:48:40.446Z,13.73
2018-12-02T08:49:40.436Z,13.83
2018-12-02T08:50:40.229Z,13.83
2018-12-02T08:51:40.124Z,13.83
2018-12-02T08:52:40.023Z,13.73
2018-12-02T08:53:39.943Z,13.83
2018-12-02T08:54:39.822Z,13.83
2018-12-02T08:55:39.846Z,13.73
2018-12-02T08:56:39.616Z,14.02
2018-12-02T08:57:39.513Z,13.73
2018-12-02T08:58:39.417Z,13.35
2018-12-02T08:59:39.330Z,13.26
2018-12-02T09:00:39.212Z,13.35
2018-12-02T09:01:39.114Z,13.35
2018-12-02T09:02:39.009Z,13.35
2018-12-02T09:03:38.905Z,13.45
2018-12-02T09:04:38.875Z,13.26
2018-12-02T09:05:38.700Z,13.35
2018-12-02T09:06:38.600Z,13.26
2018-12-02T09:07:38.496Z,13.64
2018-12-02T09:08:38.399Z,13.35
2018-12-02T09:09:38.309Z,13.92
2018-12-02T09:10:38.193Z,13.83
2018-12-02T09:11:38.092Z,13.73
2018-12-02T09:12:37.988Z,13.92
2018-12-02T09:13:37.890Z,13.83
2018-12-02T09:14:37.803Z,13.92
2018-12-02T09:15:37.683Z,14.21
2018-12-02T09:16:37.581Z,13.64
2018-12-02T09:17:37.480Z,14.11
2018-12-02T09:18:37.383Z,14.59
2018-12-02T09:19:37.329Z,14.78
2018-12-02T09:20:37.179Z,15.06
2018-12-02T09:21:37.075Z,15.63
2018-12-02T09:22:36.972Z,15.63
2018-12-02T09:23:36.872Z,15.44
2018-12-02T09:24:36.786Z,15.44
2018-12-02T09:25:36.669Z,15.72
2018-12-02T09:26:36.567Z,15.82
2018-12-02T09:27:36.466Z,16.01
2018-12-02T09:28:36.363Z,15.72
2018-12-02T09:29:36.282Z,16.01
2018-12-02T09:30:36.164Z,15.72
2018-12-02T09:31:36.060Z,15.53
2018-12-02T09:32:35.958Z,15.44
2018-12-02T09:33:35.865Z,14.78
2018-12-02T09:34:35.772Z,14.97
2018-12-02T09:35:35.654Z,14.87
2018-12-02T09:36:35.552Z,14.69
2018-12-02T09:37:35.451Z,14.97
2018-12-02T09:38:35.350Z,15.16
2018-12-02T09:39:35.265Z,14.69
2018-12-02T09:40:35.155Z,14.69
2018-12-02T09:41:35.049Z,14.97
2018-12-02T09:42:34.943Z,14.69
2018-12-02T09:43:34.844Z,14.69
2018-12-02T09:44:34.762Z,14.78
2018-12-02T09:45:34.638Z,14.69
2018-12-02T09:46:34.538Z,14.97
2018-12-02T09:47:34.436Z,15.16
2018-12-02T09:48:34.339Z,15.63
2018-12-02T09:49:34.251Z,15.44
2018-12-02T09:50:34.132Z,15.63
2018-12-02T09:51:34.030Z,15.44
2018-12-02T09:52:33.929Z,15.34
2018-12-02T09:53:33.828Z,15.82
2018-12-02T09:54:33.747Z,15.82
2018-12-02T09:55:33.624Z,16.01
2018-12-02T09:56:33.528Z,16.01
2018-12-02T09:57:33.425Z,16.01
2018-12-02T09:58:33.321Z,16.39
2018-12-02T09:59:33.235Z,16.10
2018-12-02T10:00:34.337Z,16.20
2018-12-02T10:01:33.016Z,16.39
2018-12-02T10:02:32.915Z,16.39
2018-12-02T10:03:32.817Z,16.39
2018-12-02T10:04:32.729Z,16.67
2018-12-02T10:05:32.613Z,16.77
2018-12-02T10:06:32.510Z,16.39
2018-12-02T10:07:32.408Z,16.77
2018-12-02T10:08:32.306Z,16.49
2018-12-02T10:09:32.226Z,16.87
2018-12-02T10:10:32.107Z,16.39
2018-12-02T10:11:32.003Z,16.96
2018-12-02T10:12:32.007Z,16.58
2018-12-02T10:13:31.799Z,16.77
2018-12-02T10:14:31.715Z,16.58
2018-12-02T10:15:31.595Z,16.58
2018-12-02T10:16:31.502Z,16.58
2018-12-02T10:17:31.397Z,16.78
2018-12-02T10:18:31.291Z,16.86
2018-12-02T10:19:31.207Z,17.06
2018-12-02T10:20:31.092Z,17.14
2018-12-02T10:21:30.990Z,16.67
2018-12-02T10:22:30.889Z,16.58
2018-12-02T10:23:30.787Z,16.49
2018-12-02T10:24:30.701Z,16.78
2018-12-02T10:25:30.623Z,16.58
2018-12-02T10:26:30.580Z,16.49
2018-12-02T10:27:30.379Z,16.97
2018-12-02T10:28:30.279Z,17.06
2018-12-02T10:29:30.194Z,17.06
2018-12-02T10:30:30.077Z,16.87
2018-12-02T10:31:29.976Z,17.06
2018-12-02T10:32:29.874Z,17.06
2018-12-02T10:33:29.877Z,16.67
2018-12-02T10:34:29.688Z,17.35
2018-12-02T10:35:29.569Z,17.16
2018-12-02T10:36:29.471Z,16.97
2018-12-02T10:37:29.389Z,16.87
2018-12-02T10:38:29.273Z,17.05
2018-12-02T10:39:29.169Z,17.14
2018-12-02T10:40:29.179Z,16.68
2018-12-02T10:41:28.964Z,16.58
2018-12-02T10:42:28.861Z,16.49
2018-12-02T10:43:28.759Z,16.97
2018-12-02T10:44:28.675Z,16.67
2018-12-02T10:45:28.558Z,16.78
2018-12-02T10:46:28.457Z,16.68
2018-12-02T10:47:28.464Z,16.39
2018-12-02T10:48:28.254Z,16.58
2018-12-02T10:49:28.154Z,16.58
2018-12-02T10:50:28.068Z,16.68
2018-12-02T10:51:27.960Z,16.78
2018-12-02T10:52:27.848Z,17.25
2018-12-02T10:53:27.749Z,17.16
2018-12-02T10:54:27.755Z,16.78
2018-12-02T10:55:27.563Z,16.87
2018-12-02T10:56:27.445Z,16.68
2018-12-02T10:57:27.345Z,17.06
2018-12-02T10:58:27.245Z,17.06
2018-12-02T10:59:27.145Z,16.97
2018-12-02T11:00:27.057Z,16.68
2018-12-02T11:01:27.043Z,16.68
2018-12-02T11:02:26.842Z,17.06
2018-12-02T11:03:26.739Z,16.97
2018-12-02T11:04:26.646Z,17.06
2018-12-02T11:05:26.551Z,17.25
2018-12-02T11:06:26.451Z,17.16
2018-12-02T11:07:26.334Z,17.06
2018-12-02T11:08:26.336Z,16.97
2018-12-02T11:09:26.130Z,16.97
2018-12-02T11:10:26.047Z,16.87
2018-12-02T11:11:25.929Z,16.97
2018-12-02T11:12:25.830Z,17.06
2018-12-02T11:13:25.727Z,16.97
2018-12-02T11:14:25.626Z,16.78
2018-12-02T11:15:25.665Z,16.78
2018-12-02T11:16:25.425Z,17.06
2018-12-02T11:17:25.324Z,16.97
2018-12-02T11:18:25.224Z,17.06
2018-12-02T11:19:25.121Z,17.35
2018-12-02T11:20:25.036Z,17.63
2018-12-02T11:21:24.918Z,17.44
2018-12-02T11:22:24.920Z,17.54
2018-12-02T11:23:24.717Z,17.44
2018-12-02T11:24:24.619Z,17.44
2018-12-02T11:25:24.556Z,17.63
2018-12-02T11:26:24.420Z,17.44
2018-12-02T11:27:24.313Z,17.35
2018-12-02T11:28:24.212Z,17.54
2018-12-02T11:29:24.112Z,17.44
2018-12-02T11:30:24.029Z,17.82
2018-12-02T11:31:23.910Z,17.63
2018-12-02T11:32:23.808Z,17.35
2018-12-02T11:33:23.707Z,16.97
2018-12-02T11:34:23.606Z,16.97
2018-12-02T11:35:23.521Z,17.16
2018-12-02T11:36:23.406Z,17.35
2018-12-02T11:37:23.305Z,17.35
2018-12-02T11:38:23.202Z,17.35
2018-12-02T11:39:23.101Z,17.44
2018-12-02T11:40:23.016Z,17.35
2018-12-02T11:41:22.899Z,17.25
2018-12-02T11:42:22.799Z,17.44
2018-12-02T11:43:22.699Z,17.35
2018-12-02T11:44:22.598Z,17.44
2018-12-02T11:45:22.512Z,17.72
2018-12-02T11:46:22.397Z,17.35
2018-12-02T11:47:22.296Z,17.72
2018-12-02T11:48:22.193Z,17.54
2018-12-02T11:49:22.092Z,17.44
2018-12-02T11:50:22.011Z,17.35
2018-12-02T11:51:21.890Z,17.54
2018-12-02T11:52:21.790Z,17.63
2018-12-02T11:53:21.691Z,17.63
2018-12-02T11:54:21.589Z,17.25
2018-12-02T11:55:21.505Z,17.25
2018-12-02T11:56:21.387Z,17.25
2018-12-02T11:57:26.451Z,17.35
2018-12-02T11:58:21.190Z,17.16
2018-12-02T11:59:21.084Z,17.16
2018-12-02T12:00:21.000Z,17.63
2018-12-02T12:01:20.882Z,17.54
2018-12-02T12:02:20.784Z,17.44
2018-12-02T12:03:20.680Z,17.63
2018-12-02T12:04:20.582Z,17.44
2018-12-02T12:05:20.499Z,17.82
2018-12-02T12:06:20.381Z,17.44
2018-12-02T12:07:20.281Z,17.72
2018-12-02T12:08:20.178Z,17.54
2018-12-02T12:09:20.077Z,17.35
2018-12-02T12:10:19.995Z,17.35
2018-12-02T12:11:19.877Z,17.06
2018-12-02T12:12:19.776Z,17.16
2018-12-02T12:13:19.679Z,17.16
2018-12-02T12:14:19.578Z,17.44
2018-12-02T12:15:19.492Z,17.44
2018-12-02T12:16:19.376Z,17.25
2018-12-02T12:17:19.271Z,17.44
2018-12-02T12:18:19.172Z,17.35
2018-12-02T12:19:19.077Z,17.25
2018-12-02T12:20:18.988Z,17.25
2018-12-02T12:21:18.870Z,16.87
2018-12-02T12:22:18.770Z,16.87
2018-12-02T12:23:18.667Z,17.25
2018-12-02T12:24:18.570Z,17.06
2018-12-02T12:25:18.483Z,16.87
2018-12-02T12:26:18.364Z,17.16
2018-12-02T12:27:18.265Z,16.87
2018-12-02T12:28:18.164Z,17.16
2018-12-02T12:29:18.069Z,16.97
2018-12-02T12:30:17.966Z,17.16
2018-12-02T12:31:17.880Z,17.25
2018-12-02T12:32:17.761Z,17.35
2018-12-02T12:33:17.660Z,17.25
2018-12-02T12:34:17.561Z,17.35
2018-12-02T12:35:17.463Z,17.54
2018-12-02T12:36:17.375Z,17.44
2018-12-02T12:37:17.259Z,17.35
2018-12-02T12:38:17.161Z,17.54
2018-12-02T12:39:17.057Z,17.35
2018-12-02T12:40:18.912Z,17.44
2018-12-02T12:41:16.872Z,17.44
2018-12-02T12:42:16.757Z,17.63
2018-12-02T12:43:16.655Z,17.35
2018-12-02T12:44:16.557Z,17.54
2018-12-02T12:45:16.456Z,17.54
2018-12-02T12:46:16.368Z,17.44
2018-12-02T12:47:16.250Z,17.54
2018-12-02T12:48:16.151Z,17.16
2018-12-02T12:49:16.052Z,17.35
2018-12-02T12:50:15.952Z,17.16
2018-12-02T12:51:15.865Z,17.35
2018-12-02T12:52:15.749Z,17.35
2018-12-02T12:53:15.647Z,17.64
2018-12-02T12:54:15.547Z,17.45
2018-12-02T12:55:15.449Z,17.63
2018-12-02T12:56:15.365Z,17.44
2018-12-02T12:57:15.246Z,17.25
2018-12-02T12:58:15.184Z,17.16
2018-12-02T12:59:15.047Z,17.06
2018-12-02T13:00:14.943Z,17.35
2018-12-02T13:01:14.861Z,16.97